sensor_id;sensor_type;location;lat;lon;timestamp;P1;durP1;ratioP1;P2;durP2;ratioP2
35969;SDS011;22448;51.298;6.430;2023-05-07T00:01:38;13.93;;;12.13;;
35969;SDS011;22448;51.298;6.430;2023-05-07T00:04:05;15.60;;;12.05;;
35969;SDS011;22448;51.298;6.430;2023-05-07T00:06:32;16.67;;;11.73;;
35969;SDS011;22448;51.298;6.430;2023-05-07T00:08:59;16.25;;;12.85;;
35969;SDS011;22448;51.298;6.430;2023-05-07T00:11:27;18.75;;;13.93;;
35969;SDS011;22448;51.298;6.430;2023-05-07T00:13:54;18.80;;;13.40;;
35969;SDS011;22448;51.298;6.430;2023-05-07T00:16:21;17.38;;;12.73;;
35969;SDS011;22448;51.298;6.430;2023-05-07T00:18:48;20.38;;;13.73;;
35969;SDS011;22448;51.298;6.430;2023-05-07T00:21:15;21.48;;;14.25;;
35969;SDS011;22448;51.298;6.430;2023-05-07T00:23:42;19.10;;;13.02;;
35969;SDS011;22448;51.298;6.430;2023-05-07T00:26:09;19.52;;;12.63;;
35969;SDS011;22448;51.298;6.430;2023-05-07T00:28:36;16.42;;;11.85;;
35969;SDS011;22448;51.298;6.430;2023-05-07T00:31:03;13.88;;;10.65;;
35969;SDS011;22448;51.298;6.430;2023-05-07T00:33:30;19.73;;;12.10;;
35969;SDS011;22448;51.298;6.430;2023-05-07T00:35:57;18.27;;;12.13;;
35969;SDS011;22448;51.298;6.430;2023-05-07T00:38:24;17.13;;;12.05;;
35969;SDS011;22448;51.298;6.430;2023-05-07T00:40:51;17.55;;;12.52;;
35969;SDS011;22448;51.298;6.430;2023-05-07T00:43:18;14.15;;;12.25;;
35969;SDS011;22448;51.298;6.430;2023-05-07T00:45:45;16.17;;;12.02;;
35969;SDS011;22448;51.298;6.430;2023-05-07T00:48:12;15.38;;;10.88;;
35969;SDS011;22448;51.298;6.430;2023-05-07T00:50:40;17.55;;;11.63;;
35969;SDS011;22448;51.298;6.430;2023-05-07T00:53:07;20.80;;;13.07;;
35969;SDS011;22448;51.298;6.430;2023-05-07T00:55:35;20.73;;;13.63;;
35969;SDS011;22448;51.298;6.430;2023-05-07T00:58:02;17.80;;;13.60;;
35969;SDS011;22448;51.298;6.430;2023-05-07T01:00:30;21.88;;;13.65;;
35969;SDS011;22448;51.298;6.430;2023-05-07T01:02:57;16.65;;;12.77;;
35969;SDS011;22448;51.298;6.430;2023-05-07T01:05:25;20.48;;;13.23;;
35969;SDS011;22448;51.298;6.430;2023-05-07T01:07:54;20.88;;;13.65;;
35969;SDS011;22448;51.298;6.430;2023-05-07T01:10:22;16.58;;;12.65;;
35969;SDS011;22448;51.298;6.430;2023-05-07T01:12:51;17.58;;;12.73;;
35969;SDS011;22448;51.298;6.430;2023-05-07T01:15:18;19.63;;;12.00;;
35969;SDS011;22448;51.298;6.430;2023-05-07T01:17:46;20.05;;;12.02;;
35969;SDS011;22448;51.298;6.430;2023-05-07T01:20:19;15.95;;;11.63;;
35969;SDS011;22448;51.298;6.430;2023-05-07T01:22:48;23.88;;;12.63;;
35969;SDS011;22448;51.298;6.430;2023-05-07T01:25:16;14.95;;;12.38;;
35969;SDS011;22448;51.298;6.430;2023-05-07T01:27:48;19.88;;;12.23;;
35969;SDS011;22448;51.298;6.430;2023-05-07T01:30:16;18.58;;;12.20;;
35969;SDS011;22448;51.298;6.430;2023-05-07T01:32:53;17.20;;;11.88;;
35969;SDS011;22448;51.298;6.430;2023-05-07T01:35:28;14.43;;;11.43;;
35969;SDS011;22448;51.298;6.430;2023-05-07T01:37:58;16.77;;;12.30;;
35969;SDS011;22448;51.298;6.430;2023-05-07T01:40:26;17.10;;;12.35;;
35969;SDS011;22448;51.298;6.430;2023-05-07T01:42:53;15.60;;;12.60;;
35969;SDS011;22448;51.298;6.430;2023-05-07T01:45:21;19.95;;;14.10;;
35969;SDS011;22448;51.298;6.430;2023-05-07T01:47:49;15.70;;;13.35;;
35969;SDS011;22448;51.298;6.430;2023-05-07T01:50:18;21.15;;;13.43;;
35969;SDS011;22448;51.298;6.430;2023-05-07T01:52:47;19.67;;;14.02;;
35969;SDS011;22448;51.298;6.430;2023-05-07T01:55:17;17.85;;;13.13;;
35969;SDS011;22448;51.298;6.430;2023-05-07T01:57:44;24.92;;;13.32;;
35969;SDS011;22448;51.298;6.430;2023-05-07T02:00:12;16.85;;;13.43;;
35969;SDS011;22448;51.298;6.430;2023-05-07T02:02:43;16.50;;;13.90;;
35969;SDS011;22448;51.298;6.430;2023-05-07T02:05:22;20.80;;;14.82;;
35969;SDS011;22448;51.298;6.430;2023-05-07T02:07:57;21.73;;;14.88;;
35969;SDS011;22448;51.298;6.430;2023-05-07T02:10:26;15.68;;;14.07;;
35969;SDS011;22448;51.298;6.430;2023-05-07T02:12:53;19.83;;;14.80;;
35969;SDS011;22448;51.298;6.430;2023-05-07T02:15:20;20.73;;;15.00;;
35969;SDS011;22448;51.298;6.430;2023-05-07T02:17:57;20.25;;;13.80;;
35969;SDS011;22448;51.298;6.430;2023-05-07T02:20:41;19.05;;;12.95;;
35969;SDS011;22448;51.298;6.430;2023-05-07T02:23:08;18.30;;;12.13;;
35969;SDS011;22448;51.298;6.430;2023-05-07T02:25:35;16.40;;;11.88;;
35969;SDS011;22448;51.298;6.430;2023-05-07T02:28:02;22.30;;;12.40;;
35969;SDS011;22448;51.298;6.430;2023-05-07T02:30:40;16.27;;;12.55;;
35969;SDS011;22448;51.298;6.430;2023-05-07T02:33:08;20.50;;;12.13;;
35969;SDS011;22448;51.298;6.430;2023-05-07T02:35:35;15.43;;;11.38;;
35969;SDS011;22448;51.298;6.430;2023-05-07T02:38:02;18.38;;;12.32;;
35969;SDS011;22448;51.298;6.430;2023-05-07T02:40:30;18.15;;;11.55;;
35969;SDS011;22448;51.298;6.430;2023-05-07T02:43:00;21.50;;;12.55;;
35969;SDS011;22448;51.298;6.430;2023-05-07T02:45:27;16.55;;;11.40;;
35969;SDS011;22448;51.298;6.430;2023-05-07T02:47:54;15.85;;;11.18;;
35969;SDS011;22448;51.298;6.430;2023-05-07T02:50:21;16.10;;;11.30;;
35969;SDS011;22448;51.298;6.430;2023-05-07T02:52:48;17.67;;;11.32;;
35969;SDS011;22448;51.298;6.430;2023-05-07T02:55:15;15.50;;;10.48;;
35969;SDS011;22448;51.298;6.430;2023-05-07T02:57:42;18.15;;;11.60;;
35969;SDS011;22448;51.298;6.430;2023-05-07T03:00:10;14.93;;;10.80;;
35969;SDS011;22448;51.298;6.430;2023-05-07T03:02:42;16.60;;;10.52;;
35969;SDS011;22448;51.298;6.430;2023-05-07T03:05:09;15.40;;;10.90;;
35969;SDS011;22448;51.298;6.430;2023-05-07T03:07:36;18.85;;;11.90;;
35969;SDS011;22448;51.298;6.430;2023-05-07T03:10:04;15.90;;;10.45;;
35969;SDS011;22448;51.298;6.430;2023-05-07T03:12:31;20.75;;;11.60;;
35969;SDS011;22448;51.298;6.430;2023-05-07T03:14:58;15.90;;;10.93;;
35969;SDS011;22448;51.298;6.430;2023-05-07T03:17:25;17.25;;;10.90;;
35969;SDS011;22448;51.298;6.430;2023-05-07T03:19:52;17.27;;;10.52;;
35969;SDS011;22448;51.298;6.430;2023-05-07T03:22:19;12.23;;;10.02;;
35969;SDS011;22448;51.298;6.430;2023-05-07T03:24:47;17.10;;;11.18;;
35969;SDS011;22448;51.298;6.430;2023-05-07T03:27:13;13.43;;;10.75;;
35969;SDS011;22448;51.298;6.430;2023-05-07T03:29:41;16.83;;;10.48;;
35969;SDS011;22448;51.298;6.430;2023-05-07T03:32:08;13.95;;;10.43;;
35969;SDS011;22448;51.298;6.430;2023-05-07T03:34:36;15.80;;;9.80;;
35969;SDS011;22448;51.298;6.430;2023-05-07T03:37:03;14.90;;;8.90;;
35969;SDS011;22448;51.298;6.430;2023-05-07T03:39:30;17.80;;;9.98;;
35969;SDS011;22448;51.298;6.430;2023-05-07T03:41:58;15.70;;;10.18;;
35969;SDS011;22448;51.298;6.430;2023-05-07T03:44:26;17.52;;;9.82;;
35969;SDS011;22448;51.298;6.430;2023-05-07T03:46:53;20.63;;;10.48;;
35969;SDS011;22448;51.298;6.430;2023-05-07T03:49:20;14.27;;;10.98;;
35969;SDS011;22448;51.298;6.430;2023-05-07T03:51:47;14.10;;;11.02;;
35969;SDS011;22448;51.298;6.430;2023-05-07T03:54:14;17.58;;;10.93;;
35969;SDS011;22448;51.298;6.430;2023-05-07T03:56:44;12.90;;;10.70;;
35969;SDS011;22448;51.298;6.430;2023-05-07T03:59:11;18.10;;;11.60;;
35969;SDS011;22448;51.298;6.430;2023-05-07T04:01:41;17.23;;;10.50;;
35969;SDS011;22448;51.298;6.430;2023-05-07T04:04:14;17.00;;;10.90;;
35969;SDS011;22448;51.298;6.430;2023-05-07T04:06:41;16.10;;;10.40;;
35969;SDS011;22448;51.298;6.430;2023-05-07T04:09:09;14.70;;;11.52;;
35969;SDS011;22448;51.298;6.430;2023-05-07T04:11:37;14.55;;;10.20;;
35969;SDS011;22448;51.298;6.430;2023-05-07T04:14:08;12.48;;;10.10;;
35969;SDS011;22448;51.298;6.430;2023-05-07T04:16:36;13.38;;;9.70;;
35969;SDS011;22448;51.298;6.430;2023-05-07T04:19:03;16.60;;;10.30;;
35969;SDS011;22448;51.298;6.430;2023-05-07T04:21:31;12.90;;;9.95;;
35969;SDS011;22448;51.298;6.430;2023-05-07T04:23:58;16.13;;;8.93;;
35969;SDS011;22448;51.298;6.430;2023-05-07T04:26:25;14.65;;;10.27;;
35969;SDS011;22448;51.298;6.430;2023-05-07T04:28:52;14.55;;;9.80;;
35969;SDS011;22448;51.298;6.430;2023-05-07T04:31:19;13.43;;;9.73;;
35969;SDS011;22448;51.298;6.430;2023-05-07T04:33:50;15.55;;;9.65;;
35969;SDS011;22448;51.298;6.430;2023-05-07T04:36:18;14.43;;;9.50;;
35969;SDS011;22448;51.298;6.430;2023-05-07T04:38:50;12.93;;;9.52;;
35969;SDS011;22448;51.298;6.430;2023-05-07T04:41:18;13.43;;;9.35;;
35969;SDS011;22448;51.298;6.430;2023-05-07T04:43:46;12.88;;;9.38;;
35969;SDS011;22448;51.298;6.430;2023-05-07T04:46:14;12.50;;;9.20;;
35969;SDS011;22448;51.298;6.430;2023-05-07T04:48:42;16.70;;;9.80;;
35969;SDS011;22448;51.298;6.430;2023-05-07T04:51:10;14.93;;;9.40;;
35969;SDS011;22448;51.298;6.430;2023-05-07T04:53:37;13.73;;;9.68;;
35969;SDS011;22448;51.298;6.430;2023-05-07T04:56:04;12.73;;;9.77;;
35969;SDS011;22448;51.298;6.430;2023-05-07T04:58:38;13.80;;;8.93;;
35969;SDS011;22448;51.298;6.430;2023-05-07T05:01:05;11.40;;;8.00;;
35969;SDS011;22448;51.298;6.430;2023-05-07T05:03:32;11.30;;;8.63;;
35969;SDS011;22448;51.298;6.430;2023-05-07T05:05:59;12.48;;;7.93;;
35969;SDS011;22448;51.298;6.430;2023-05-07T05:08:30;9.43;;;7.90;;
35969;SDS011;22448;51.298;6.430;2023-05-07T05:11:00;10.27;;;7.45;;
35969;SDS011;22448;51.298;6.430;2023-05-07T05:13:29;16.35;;;8.25;;
35969;SDS011;22448;51.298;6.430;2023-05-07T05:15:57;9.25;;;7.40;;
35969;SDS011;22448;51.298;6.430;2023-05-07T05:18:25;13.18;;;8.07;;
35969;SDS011;22448;51.298;6.430;2023-05-07T05:20:52;18.42;;;7.60;;
35969;SDS011;22448;51.298;6.430;2023-05-07T05:23:20;13.50;;;8.15;;
35969;SDS011;22448;51.298;6.430;2023-05-07T05:25:47;12.27;;;7.13;;
35969;SDS011;22448;51.298;6.430;2023-05-07T05:28:14;12.55;;;7.50;;
35969;SDS011;22448;51.298;6.430;2023-05-07T05:30:41;9.98;;;7.57;;
35969;SDS011;22448;51.298;6.430;2023-05-07T05:33:08;11.43;;;7.70;;
35969;SDS011;22448;51.298;6.430;2023-05-07T05:35:35;13.23;;;7.35;;
35969;SDS011;22448;51.298;6.430;2023-05-07T05:38:06;9.48;;;6.60;;
35969;SDS011;22448;51.298;6.430;2023-05-07T05:40:33;12.52;;;6.95;;
35969;SDS011;22448;51.298;6.430;2023-05-07T05:43:00;8.65;;;6.45;;
35969;SDS011;22448;51.298;6.430;2023-05-07T05:45:27;10.70;;;6.65;;
35969;SDS011;22448;51.298;6.430;2023-05-07T05:47:55;12.18;;;6.40;;
35969;SDS011;22448;51.298;6.430;2023-05-07T05:50:23;9.00;;;5.70;;
35969;SDS011;22448;51.298;6.430;2023-05-07T05:52:51;8.57;;;5.60;;
35969;SDS011;22448;51.298;6.430;2023-05-07T05:55:19;7.13;;;6.05;;
35969;SDS011;22448;51.298;6.430;2023-05-07T05:57:46;8.52;;;5.90;;
35969;SDS011;22448;51.298;6.430;2023-05-07T06:00:14;9.10;;;6.25;;
35969;SDS011;22448;51.298;6.430;2023-05-07T06:02:45;8.63;;;5.30;;
35969;SDS011;22448;51.298;6.430;2023-05-07T06:05:18;10.32;;;5.93;;
35969;SDS011;22448;51.298;6.430;2023-05-07T06:07:48;9.90;;;6.90;;
35969;SDS011;22448;51.298;6.430;2023-05-07T06:10:16;12.20;;;7.10;;
35969;SDS011;22448;51.298;6.430;2023-05-07T06:12:43;17.08;;;9.02;;
35969;SDS011;22448;51.298;6.430;2023-05-07T06:15:11;11.98;;;6.85;;
35969;SDS011;22448;51.298;6.430;2023-05-07T06:17:39;12.70;;;6.72;;
35969;SDS011;22448;51.298;6.430;2023-05-07T06:20:08;10.82;;;6.55;;
35969;SDS011;22448;51.298;6.430;2023-05-07T06:22:37;13.48;;;5.70;;
35969;SDS011;22448;51.298;6.430;2023-05-07T06:25:04;9.82;;;5.95;;
35969;SDS011;22448;51.298;6.430;2023-05-07T06:27:32;11.18;;;6.32;;
35969;SDS011;22448;51.298;6.430;2023-05-07T06:29:59;10.02;;;5.95;;
35969;SDS011;22448;51.298;6.430;2023-05-07T06:32:26;8.95;;;6.07;;
35969;SDS011;22448;51.298;6.430;2023-05-07T06:34:54;10.07;;;6.70;;
35969;SDS011;22448;51.298;6.430;2023-05-07T06:37:22;12.25;;;6.63;;
35969;SDS011;22448;51.298;6.430;2023-05-07T06:40:01;10.88;;;6.75;;
35969;SDS011;22448;51.298;6.430;2023-05-07T06:42:30;10.05;;;7.30;;
35969;SDS011;22448;51.298;6.430;2023-05-07T06:45:14;9.55;;;6.47;;
35969;SDS011;22448;51.298;6.430;2023-05-07T06:47:42;15.00;;;6.72;;
35969;SDS011;22448;51.298;6.430;2023-05-07T06:50:09;10.02;;;5.60;;
35969;SDS011;22448;51.298;6.430;2023-05-07T06:52:37;9.40;;;5.45;;
35969;SDS011;22448;51.298;6.430;2023-05-07T06:55:05;14.23;;;5.80;;
35969;SDS011;22448;51.298;6.430;2023-05-07T06:57:33;6.68;;;4.22;;
35969;SDS011;22448;51.298;6.430;2023-05-07T07:00:00;7.65;;;4.22;;
35969;SDS011;22448;51.298;6.430;2023-05-07T07:02:28;10.45;;;5.20;;
35969;SDS011;22448;51.298;6.430;2023-05-07T07:04:55;6.78;;;4.13;;
35969;SDS011;22448;51.298;6.430;2023-05-07T07:07:23;7.95;;;4.60;;
35969;SDS011;22448;51.298;6.430;2023-05-07T07:09:50;14.13;;;4.20;;
35969;SDS011;22448;51.298;6.430;2023-05-07T07:12:18;7.35;;;4.13;;
35969;SDS011;22448;51.298;6.430;2023-05-07T07:14:46;8.25;;;3.92;;
35969;SDS011;22448;51.298;6.430;2023-05-07T07:17:13;8.07;;;4.07;;
35969;SDS011;22448;51.298;6.430;2023-05-07T07:19:40;9.02;;;4.40;;
35969;SDS011;22448;51.298;6.430;2023-05-07T07:22:08;12.73;;;4.22;;
35969;SDS011;22448;51.298;6.430;2023-05-07T07:24:35;8.45;;;4.47;;
35969;SDS011;22448;51.298;6.430;2023-05-07T07:27:05;7.60;;;4.45;;
35969;SDS011;22448;51.298;6.430;2023-05-07T07:29:33;8.75;;;5.30;;
35969;SDS011;22448;51.298;6.430;2023-05-07T07:32:01;11.60;;;5.03;;
35969;SDS011;22448;51.298;6.430;2023-05-07T07:34:28;9.55;;;4.25;;
35969;SDS011;22448;51.298;6.430;2023-05-07T07:36:55;12.55;;;4.55;;
35969;SDS011;22448;51.298;6.430;2023-05-07T07:39:23;11.55;;;4.82;;
35969;SDS011;22448;51.298;6.430;2023-05-07T07:41:53;10.18;;;5.07;;
35969;SDS011;22448;51.298;6.430;2023-05-07T07:44:20;8.50;;;4.85;;
35969;SDS011;22448;51.298;6.430;2023-05-07T07:46:52;8.07;;;4.78;;
35969;SDS011;22448;51.298;6.430;2023-05-07T07:49:20;12.48;;;5.10;;
35969;SDS011;22448;51.298;6.430;2023-05-07T07:51:48;9.38;;;4.78;;
35969;SDS011;22448;51.298;6.430;2023-05-07T07:54:15;8.05;;;4.60;;
35969;SDS011;22448;51.298;6.430;2023-05-07T07:56:43;9.52;;;5.03;;
35969;SDS011;22448;51.298;6.430;2023-05-07T07:59:12;8.13;;;4.88;;
35969;SDS011;22448;51.298;6.430;2023-05-07T08:01:41;12.05;;;4.95;;
35969;SDS011;22448;51.298;6.430;2023-05-07T08:04:08;7.10;;;4.63;;
35969;SDS011;22448;51.298;6.430;2023-05-07T08:06:39;10.45;;;5.60;;
35969;SDS011;22448;51.298;6.430;2023-05-07T08:09:07;9.95;;;5.50;;
35969;SDS011;22448;51.298;6.430;2023-05-07T08:11:36;10.40;;;5.35;;
35969;SDS011;22448;51.298;6.430;2023-05-07T08:14:04;8.27;;;4.75;;
35969;SDS011;22448;51.298;6.430;2023-05-07T08:16:31;8.52;;;4.82;;
35969;SDS011;22448;51.298;6.430;2023-05-07T08:18:59;7.35;;;4.50;;
35969;SDS011;22448;51.298;6.430;2023-05-07T08:21:26;8.05;;;5.00;;
35969;SDS011;22448;51.298;6.430;2023-05-07T08:23:53;7.57;;;3.92;;
35969;SDS011;22448;51.298;6.430;2023-05-07T08:26:20;10.70;;;4.47;;
35969;SDS011;22448;51.298;6.430;2023-05-07T08:28:47;7.57;;;4.32;;
35969;SDS011;22448;51.298;6.430;2023-05-07T08:31:14;10.60;;;4.50;;
35969;SDS011;22448;51.298;6.430;2023-05-07T08:33:43;8.77;;;4.10;;
35969;SDS011;22448;51.298;6.430;2023-05-07T08:36:10;6.80;;;4.70;;
35969;SDS011;22448;51.298;6.430;2023-05-07T08:38:37;6.80;;;5.07;;
35969;SDS011;22448;51.298;6.430;2023-05-07T08:41:04;5.80;;;4.28;;
35969;SDS011;22448;51.298;6.430;2023-05-07T08:43:33;8.30;;;4.95;;
35969;SDS011;22448;51.298;6.430;2023-05-07T08:46:05;6.95;;;4.38;;
35969;SDS011;22448;51.298;6.430;2023-05-07T08:48:40;9.38;;;4.65;;
35969;SDS011;22448;51.298;6.430;2023-05-07T08:51:12;6.90;;;4.33;;
35969;SDS011;22448;51.298;6.430;2023-05-07T08:53:41;6.97;;;4.53;;
35969;SDS011;22448;51.298;6.430;2023-05-07T08:56:12;5.47;;;4.22;;
35969;SDS011;22448;51.298;6.430;2023-05-07T08:58:39;13.40;;;4.18;;
35969;SDS011;22448;51.298;6.430;2023-05-07T09:01:07;7.43;;;4.32;;
35969;SDS011;22448;51.298;6.430;2023-05-07T09:03:37;7.72;;;4.70;;
35969;SDS011;22448;51.298;6.430;2023-05-07T09:06:04;9.20;;;4.45;;
35969;SDS011;22448;51.298;6.430;2023-05-07T09:08:33;6.88;;;4.40;;
35969;SDS011;22448;51.298;6.430;2023-05-07T09:11:02;8.13;;;4.60;;
35969;SDS011;22448;51.298;6.430;2023-05-07T09:13:29;10.35;;;5.75;;
35969;SDS011;22448;51.298;6.430;2023-05-07T09:15:58;9.40;;;4.25;;
35969;SDS011;22448;51.298;6.430;2023-05-07T09:18:40;8.38;;;4.82;;
35969;SDS011;22448;51.298;6.430;2023-05-07T09:21:14;9.30;;;5.10;;
35969;SDS011;22448;51.298;6.430;2023-05-07T09:23:43;8.23;;;5.57;;
35969;SDS011;22448;51.298;6.430;2023-05-07T09:26:11;6.35;;;4.82;;
35969;SDS011;22448;51.298;6.430;2023-05-07T09:28:40;7.60;;;4.75;;
35969;SDS011;22448;51.298;6.430;2023-05-07T09:31:10;6.72;;;4.15;;
35969;SDS011;22448;51.298;6.430;2023-05-07T09:33:39;7.53;;;4.32;;
35969;SDS011;22448;51.298;6.430;2023-05-07T09:36:09;7.80;;;3.53;;
35969;SDS011;22448;51.298;6.430;2023-05-07T09:38:38;5.50;;;3.70;;
35969;SDS011;22448;51.298;6.430;2023-05-07T09:41:11;6.90;;;3.67;;
35969;SDS011;22448;51.298;6.430;2023-05-07T09:43:46;9.65;;;3.75;;
35969;SDS011;22448;51.298;6.430;2023-05-07T09:46:27;8.45;;;3.90;;
35969;SDS011;22448;51.298;6.430;2023-05-07T09:48:58;8.23;;;3.72;;
35969;SDS011;22448;51.298;6.430;2023-05-07T09:51:29;5.40;;;3.25;;
35969;SDS011;22448;51.298;6.430;2023-05-07T09:54:18;7.90;;;3.50;;
35969;SDS011;22448;51.298;6.430;2023-05-07T09:56:48;9.98;;;3.55;;
35969;SDS011;22448;51.298;6.430;2023-05-07T09:59:17;7.63;;;3.60;;
35969;SDS011;22448;51.298;6.430;2023-05-07T10:01:45;8.73;;;3.47;;
35969;SDS011;22448;51.298;6.430;2023-05-07T10:04:13;6.78;;;3.25;;
35969;SDS011;22448;51.298;6.430;2023-05-07T10:06:43;6.35;;;2.92;;
35969;SDS011;22448;51.298;6.430;2023-05-07T10:09:11;5.30;;;2.80;;
35969;SDS011;22448;51.298;6.430;2023-05-07T10:11:39;5.88;;;3.00;;
35969;SDS011;22448;51.298;6.430;2023-05-07T10:14:07;5.55;;;2.85;;
35969;SDS011;22448;51.298;6.430;2023-05-07T10:16:36;7.95;;;3.13;;
35969;SDS011;22448;51.298;6.430;2023-05-07T10:19:08;10.35;;;3.90;;
35969;SDS011;22448;51.298;6.430;2023-05-07T10:21:44;4.78;;;3.00;;
35969;SDS011;22448;51.298;6.430;2023-05-07T10:24:22;4.97;;;2.63;;
35969;SDS011;22448;51.298;6.430;2023-05-07T10:26:53;2.75;;;1.88;;
35969;SDS011;22448;51.298;6.430;2023-05-07T10:32:13;6.18;;;3.10;;
35969;SDS011;22448;51.298;6.430;2023-05-07T10:34:50;4.13;;;2.60;;
35969;SDS011;22448;51.298;6.430;2023-05-07T10:37:22;3.70;;;2.50;;
35969;SDS011;22448;51.298;6.430;2023-05-07T10:39:50;6.78;;;2.63;;
35969;SDS011;22448;51.298;6.430;2023-05-07T10:42:18;6.43;;;2.53;;
35969;SDS011;22448;51.298;6.430;2023-05-07T10:44:50;5.18;;;2.45;;
35969;SDS011;22448;51.298;6.430;2023-05-07T10:47:23;4.75;;;2.50;;
35969;SDS011;22448;51.298;6.430;2023-05-07T10:52:26;9.73;;;3.17;;
35969;SDS011;22448;51.298;6.430;2023-05-07T10:57:55;7.88;;;3.13;;
35969;SDS011;22448;51.298;6.430;2023-05-07T11:05:35;6.78;;;2.78;;
35969;SDS011;22448;51.298;6.430;2023-05-07T11:08:24;4.78;;;2.50;;
35969;SDS011;22448;51.298;6.430;2023-05-07T11:10:57;6.40;;;2.30;;
35969;SDS011;22448;51.298;6.430;2023-05-07T11:13:48;6.38;;;2.40;;
35969;SDS011;22448;51.298;6.430;2023-05-07T11:16:36;4.82;;;2.08;;
35969;SDS011;22448;51.298;6.430;2023-05-07T11:19:16;8.32;;;3.28;;
35969;SDS011;22448;51.298;6.430;2023-05-07T11:21:47;8.23;;;3.88;;
35969;SDS011;22448;51.298;6.430;2023-05-07T11:24:39;9.32;;;4.03;;
35969;SDS011;22448;51.298;6.430;2023-05-07T11:27:10;8.07;;;2.90;;
35969;SDS011;22448;51.298;6.430;2023-05-07T11:29:38;5.13;;;2.67;;
35969;SDS011;22448;51.298;6.430;2023-05-07T11:32:09;7.15;;;2.65;;
35969;SDS011;22448;51.298;6.430;2023-05-07T11:34:43;5.07;;;2.50;;
35969;SDS011;22448;51.298;6.430;2023-05-07T11:37:11;4.65;;;2.22;;
35969;SDS011;22448;51.298;6.430;2023-05-07T11:39:50;3.92;;;2.25;;
35969;SDS011;22448;51.298;6.430;2023-05-07T11:42:27;4.60;;;2.70;;
35969;SDS011;22448;51.298;6.430;2023-05-07T11:44:56;5.95;;;2.90;;
35969;SDS011;22448;51.298;6.430;2023-05-07T11:47:23;6.05;;;1.73;;
35969;SDS011;22448;51.298;6.430;2023-05-07T11:49:52;8.88;;;2.40;;
35969;SDS011;22448;51.298;6.430;2023-05-07T11:52:21;4.03;;;1.90;;
35969;SDS011;22448;51.298;6.430;2023-05-07T11:54:52;2.10;;;1.33;;
35969;SDS011;22448;51.298;6.430;2023-05-07T11:57:22;4.25;;;1.70;;
35969;SDS011;22448;51.298;6.430;2023-05-07T11:59:56;3.65;;;1.80;;
35969;SDS011;22448;51.298;6.430;2023-05-07T12:02:24;5.30;;;1.92;;
35969;SDS011;22448;51.298;6.430;2023-05-07T12:04:52;2.63;;;1.27;;
35969;SDS011;22448;51.298;6.430;2023-05-07T12:07:19;4.05;;;1.40;;
35969;SDS011;22448;51.298;6.430;2023-05-07T12:09:47;2.90;;;1.40;;
35969;SDS011;22448;51.298;6.430;2023-05-07T12:12:14;4.88;;;1.40;;
35969;SDS011;22448;51.298;6.430;2023-05-07T12:14:44;3.28;;;1.13;;
35969;SDS011;22448;51.298;6.430;2023-05-07T12:17:13;3.70;;;1.35;;
35969;SDS011;22448;51.298;6.430;2023-05-07T12:19:41;3.38;;;1.38;;
35969;SDS011;22448;51.298;6.430;2023-05-07T12:22:10;5.82;;;1.48;;
35969;SDS011;22448;51.298;6.430;2023-05-07T12:24:47;3.67;;;1.30;;
35969;SDS011;22448;51.298;6.430;2023-05-07T12:27:16;2.17;;;1.00;;
35969;SDS011;22448;51.298;6.430;2023-05-07T12:29:46;2.55;;;1.30;;
35969;SDS011;22448;51.298;6.430;2023-05-07T12:32:17;2.00;;;1.20;;
35969;SDS011;22448;51.298;6.430;2023-05-07T12:34:45;3.15;;;1.73;;
35969;SDS011;22448;51.298;6.430;2023-05-07T12:37:13;3.88;;;1.40;;
35969;SDS011;22448;51.298;6.430;2023-05-07T12:39:49;4.05;;;1.33;;
35969;SDS011;22448;51.298;6.430;2023-05-07T12:42:32;3.50;;;1.77;;
35969;SDS011;22448;51.298;6.430;2023-05-07T12:45:08;3.10;;;1.40;;
35969;SDS011;22448;51.298;6.430;2023-05-07T12:47:43;2.63;;;1.40;;
35969;SDS011;22448;51.298;6.430;2023-05-07T12:50:14;5.20;;;1.77;;
35969;SDS011;22448;51.298;6.430;2023-05-07T12:52:43;6.28;;;1.77;;
35969;SDS011;22448;51.298;6.430;2023-05-07T12:55:12;2.78;;;1.55;;
35969;SDS011;22448;51.298;6.430;2023-05-07T12:57:42;5.10;;;1.80;;
35969;SDS011;22448;51.298;6.430;2023-05-07T13:00:12;6.07;;;1.88;;
35969;SDS011;22448;51.298;6.430;2023-05-07T13:02:40;10.88;;;1.83;;
35969;SDS011;22448;51.298;6.430;2023-05-07T13:05:08;6.70;;;1.80;;
35969;SDS011;22448;51.298;6.430;2023-05-07T13:07:36;4.82;;;1.70;;
35969;SDS011;22448;51.298;6.430;2023-05-07T13:10:03;4.57;;;1.92;;
35969;SDS011;22448;51.298;6.430;2023-05-07T13:12:31;5.90;;;2.67;;
35969;SDS011;22448;51.298;6.430;2023-05-07T13:14:58;3.83;;;2.10;;
35969;SDS011;22448;51.298;6.430;2023-05-07T13:17:25;3.50;;;1.98;;
35969;SDS011;22448;51.298;6.430;2023-05-07T13:19:53;5.68;;;2.15;;
35969;SDS011;22448;51.298;6.430;2023-05-07T13:22:20;2.92;;;1.90;;
35969;SDS011;22448;51.298;6.430;2023-05-07T13:24:46;4.25;;;1.80;;
35969;SDS011;22448;51.298;6.430;2023-05-07T13:27:13;4.95;;;1.95;;
35969;SDS011;22448;51.298;6.430;2023-05-07T13:29:40;5.50;;;1.90;;
35969;SDS011;22448;51.298;6.430;2023-05-07T13:32:07;5.78;;;2.05;;
35969;SDS011;22448;51.298;6.430;2023-05-07T13:34:34;10.32;;;2.00;;
35969;SDS011;22448;51.298;6.430;2023-05-07T13:37:01;3.58;;;2.08;;
35969;SDS011;22448;51.298;6.430;2023-05-07T13:39:28;3.63;;;1.90;;
35969;SDS011;22448;51.298;6.430;2023-05-07T13:41:55;6.95;;;1.70;;
35969;SDS011;22448;51.298;6.430;2023-05-07T13:44:22;6.55;;;2.28;;
35969;SDS011;22448;51.298;6.430;2023-05-07T13:46:49;6.28;;;3.05;;
35969;SDS011;22448;51.298;6.430;2023-05-07T13:49:17;6.78;;;2.28;;
35969;SDS011;22448;51.298;6.430;2023-05-07T13:51:44;8.18;;;3.10;;
35969;SDS011;22448;51.298;6.430;2023-05-07T13:54:11;15.85;;;7.38;;
35969;SDS011;22448;51.298;6.430;2023-05-07T13:56:38;13.07;;;7.90;;
35969;SDS011;22448;51.298;6.430;2023-05-07T13:59:06;20.23;;;8.80;;
35969;SDS011;22448;51.298;6.430;2023-05-07T14:01:33;17.85;;;9.88;;
35969;SDS011;22448;51.298;6.430;2023-05-07T14:04:00;11.77;;;6.28;;
35969;SDS011;22448;51.298;6.430;2023-05-07T14:06:27;8.82;;;5.65;;
35969;SDS011;22448;51.298;6.430;2023-05-07T14:08:54;10.00;;;3.40;;
35969;SDS011;22448;51.298;6.430;2023-05-07T14:11:21;6.13;;;3.45;;
35969;SDS011;22448;51.298;6.430;2023-05-07T14:13:48;7.47;;;4.20;;
35969;SDS011;22448;51.298;6.430;2023-05-07T14:16:15;5.35;;;3.20;;
35969;SDS011;22448;51.298;6.430;2023-05-07T14:18:42;6.07;;;3.20;;
35969;SDS011;22448;51.298;6.430;2023-05-07T14:21:09;5.43;;;2.85;;
35969;SDS011;22448;51.298;6.430;2023-05-07T14:23:36;7.07;;;2.47;;
35969;SDS011;22448;51.298;6.430;2023-05-07T14:26:02;4.43;;;2.20;;
35969;SDS011;22448;51.298;6.430;2023-05-07T14:28:29;3.97;;;2.85;;
35969;SDS011;22448;51.298;6.430;2023-05-07T14:30:56;8.82;;;5.75;;
35969;SDS011;22448;51.298;6.430;2023-05-07T14:33:24;8.02;;;5.25;;
35969;SDS011;22448;51.298;6.430;2023-05-07T14:35:51;10.23;;;4.13;;
35969;SDS011;22448;51.298;6.430;2023-05-07T14:38:19;15.93;;;7.80;;
35969;SDS011;22448;51.298;6.430;2023-05-07T14:40:46;10.18;;;7.85;;
35969;SDS011;22448;51.298;6.430;2023-05-07T14:43:13;4.97;;;2.72;;
35969;SDS011;22448;51.298;6.430;2023-05-07T14:45:40;8.52;;;4.45;;
35969;SDS011;22448;51.298;6.430;2023-05-07T14:48:07;10.02;;;4.53;;
35969;SDS011;22448;51.298;6.430;2023-05-07T14:50:35;10.13;;;6.30;;
35969;SDS011;22448;51.298;6.430;2023-05-07T14:53:02;11.18;;;5.28;;
35969;SDS011;22448;51.298;6.430;2023-05-07T14:55:30;5.60;;;2.30;;
35969;SDS011;22448;51.298;6.430;2023-05-07T14:58:00;6.63;;;2.30;;
35969;SDS011;22448;51.298;6.430;2023-05-07T15:00:27;8.45;;;3.45;;
35969;SDS011;22448;51.298;6.430;2023-05-07T15:02:56;10.25;;;3.15;;